Veersedijk — PBCX — position and weather

sailwx.info

Track history (hours):
 
Tides and Currents Weather Stations Pressure Air Temp Water Temp Dewpoint Dewpoint Depression Visibility Wind Speed Wind Dir Waves Ship Positions

Veersedijk

Last reported at 2014-Jul-30 20:33 UTC. Time now 2014-Jul-30 21:16 UTC.
Position N 40°34' E 000°58'.

Length 132 m; draft 6.1 m.

Type: Ship (hazmat cat A). MMSI: 244268000.

Date/timePositionNaut miles runAvg speedWind from/ knotsBaromVisibWave heightAir tempDewpointWater temp
2014-Jul-30 20:33N 40°34' E 000°58'1212.5
2014-Jul-30 19:33N 40°42' E 001°10'1212.1
2014-Jul-30 18:33N 40°49' E 001°23'1211.7
2014-Jul-30 17:33N 40°56' E 001°35'1211.9
2014-Jul-30 16:34N 41°04' E 001°48'1212.3
2014-Jul-30 15:34N 41°11' E 002°01'1110.3
2014-Jul-30 14:29N 41°20' E 002°10'1 1.5
2014-Jul-30 13:28N 41°21' E 002°10'0 0.0
2014-Jul-30 12:16N 41°21' E 002°10'0 0.0
2014-Jul-30 06:15N 41°21' E 002°10'3 4.1
2014-Jul-30 05:29N 41°18' E 002°11'910.0
2014-Jul-30 04:33N 41°13' E 002°00'1913.8
2014-Jul-30 03:08N 41°06' E 001°36'18 2.0
2014-Jul-29 18:23N 41°05' E 001°13'2412.8
2014-Jul-29 16:30N 40°41' E 001°03'98 3.6
2014-Jul-28 13:23N 39°26' W 000°19'0 0.0
2014-Jul-28 12:32N 39°26' W 000°19'0 0.0
2014-Jul-28 11:29N 39°26' W 000°19'0 0.0
2014-Jul-28 10:23N 39°26' W 000°19'0 0.1
2014-Jul-28 07:33N 39°26' W 000°19'4 4.2
2014-Jul-28 06:33N 39°24' W 000°14'1 0.9
2014-Jul-28 05:30N 39°23' W 000°14'0 0.4
2014-Jul-28 04:22N 39°23' W 000°13'2613.8
2014-Jul-28 02:31N 39°03' E 000°07'1614.5
2014-Jul-28 01:26N 38°51' E 000°20'1311.5
2014-Jul-28 00:16N 38°38' E 000°24'5814.5
2014-Jul-27 20:18N 37°50' W 000°17'1114.7
2014-Jul-27 19:32N 37°41' W 000°24'1414.6
2014-Jul-27 18:33N 37°30' W 000°36'251 7.6
2014-Jul-26 09:26N 35°58' W 005°27'10110.9
2014-Jul-26 00:11N 34°43' W 006°49'116 3.5
2014-Jul-24 15:30N 35°53' W 008°42'4511.0
2014-Jul-24 11:23N 36°32' W 009°12'2411.7
2014-Jul-24 09:18N 36°48' W 009°34'1013.7
2014-Jul-24 08:33N 36°59' W 009°35'1412.4
2014-Jul-24 07:28N 37°12' W 009°34'1212.6
2014-Jul-24 06:33N 37°24' W 009°33'1312.7
2014-Jul-24 05:32N 37°37' W 009°31'1312.8
2014-Jul-24 04:33N 37°49' W 009°29'1312.6
2014-Jul-24 03:33N 38°02' W 009°28'1212.2
2014-Jul-24 02:33N 38°14' W 009°27'1212.3
2014-Jul-24 01:33N 38°26' W 009°25'1511.2
2014-Jul-24 00:11N 38°40' W 009°18'6 8.6
2014-Jul-23 23:32N 38°41' W 009°11'1 0.3
2014-Jul-23 20:27N 38°42' W 009°10'0 0.0
2014-Jul-23 17:27N 38°42' W 009°10'0 0.0
2014-Jul-23 15:30N 38°42' W 009°10'0 0.0
2014-Jul-23 14:32N 38°42' W 009°10'5 5.0
2014-Jul-23 13:33N 38°41' W 009°16'1110.1
2014-Jul-23 12:29N 38°37' W 009°29'  
Track history (hours):
 
Tides and Currents Weather Stations Pressure Air Temp Water Temp Dewpoint Dewpoint Depression Visibility Wind Speed Wind Dir Waves Ship Positions

Veersedijk

Last reported at 2014-Jul-30 20:33 UTC. Time now 2014-Jul-30 21:16 UTC.
Position N 40°34' E 000°58'.

Length 132 m; draft 6.1 m.

Type: Ship (hazmat cat A). MMSI: 244268000.

Date/timePositionNaut miles runAvg speedWind from/ knotsBaromVisibWave heightAir tempDewpointWater temp
2014-Jul-30 20:33N 40°34' E 000°58'1212.5
2014-Jul-30 19:33N 40°42' E 001°10'1212.1
2014-Jul-30 18:33N 40°49' E 001°23'1211.7
2014-Jul-30 17:33N 40°56' E 001°35'1211.9
2014-Jul-30 16:34N 41°04' E 001°48'1212.3
2014-Jul-30 15:34N 41°11' E 002°01'1110.3
2014-Jul-30 14:29N 41°20' E 002°10'1 1.5
2014-Jul-30 13:28N 41°21' E 002°10'0 0.0
2014-Jul-30 12:16N 41°21' E 002°10'0 0.0
2014-Jul-30 06:15N 41°21' E 002°10'3 4.1
2014-Jul-30 05:29N 41°18' E 002°11'910.0
2014-Jul-30 04:33N 41°13' E 002°00'1913.8
2014-Jul-30 03:08N 41°06' E 001°36'18 2.0
2014-Jul-29 18:23N 41°05' E 001°13'2412.8
2014-Jul-29 16:30N 40°41' E 001°03'98 3.6
2014-Jul-28 13:23N 39°26' W 000°19'0 0.0
2014-Jul-28 12:32N 39°26' W 000°19'0 0.0
2014-Jul-28 11:29N 39°26' W 000°19'0 0.0
2014-Jul-28 10:23N 39°26' W 000°19'0 0.1
2014-Jul-28 07:33N 39°26' W 000°19'4 4.2
2014-Jul-28 06:33N 39°24' W 000°14'1 0.9
2014-Jul-28 05:30N 39°23' W 000°14'0 0.4
2014-Jul-28 04:22N 39°23' W 000°13'2613.8
2014-Jul-28 02:31N 39°03' E 000°07'1614.5
2014-Jul-28 01:26N 38°51' E 000°20'1311.5
2014-Jul-28 00:16N 38°38' E 000°24'5814.5
2014-Jul-27 20:18N 37°50' W 000°17'1114.7
2014-Jul-27 19:32N 37°41' W 000°24'1414.6
2014-Jul-27 18:33N 37°30' W 000°36'251 7.6
2014-Jul-26 09:26N 35°58' W 005°27'10110.9
2014-Jul-26 00:11N 34°43' W 006°49'116 3.5
2014-Jul-24 15:30N 35°53' W 008°42'4511.0
2014-Jul-24 11:23N 36°32' W 009°12'2411.7
2014-Jul-24 09:18N 36°48' W 009°34'1013.7
2014-Jul-24 08:33N 36°59' W 009°35'1412.4
2014-Jul-24 07:28N 37°12' W 009°34'1212.6
2014-Jul-24 06:33N 37°24' W 009°33'1312.7
2014-Jul-24 05:32N 37°37' W 009°31'1312.8
2014-Jul-24 04:33N 37°49' W 009°29'1312.6
2014-Jul-24 03:33N 38°02' W 009°28'1212.2
2014-Jul-24 02:33N 38°14' W 009°27'1212.3
2014-Jul-24 01:33N 38°26' W 009°25'1511.2
2014-Jul-24 00:11N 38°40' W 009°18'6 8.6
2014-Jul-23 23:32N 38°41' W 009°11'1 0.3
2014-Jul-23 20:27N 38°42' W 009°10'0 0.0
2014-Jul-23 17:27N 38°42' W 009°10'0 0.0
2014-Jul-23 15:30N 38°42' W 009°10'0 0.0
2014-Jul-23 14:32N 38°42' W 009°10'5 5.0
2014-Jul-23 13:33N 38°41' W 009°16'1110.1
2014-Jul-23 12:29N 38°37' W 009°29'  

Dump ship's entire track history